Aérodrome :
LOGIN :

S'inscrire | Disclaimer

   EN    FR    IT 

 










Légende :    VFR   VFR Marginal   IFR   IFR Intensif   IFR Très Intensif
Visi : 
Plafond : 
>= 8 km
>= 3000ft
5 à 8 km
1000 à 3000 ft
1500m à 5 km
500 à 1000 ft
800 à 1500m
200 à 500 ft
< 800m
< 200 ft
Symboles :   Orages  Brouillard  Fortes neiges  Fortes précipitations  Vent > 20 kt
SIGMETs :   Divers  Orages  Givrage  Turbulence  Onde Orograph.  Cendres Volcan.







- Altitude de l'aérodrome : 297 ft
- Code IATA : UIP
- Voir les cartes d'approche


LFRQ - Quimper Pluguffan

DERNIER METAR :
  • 250030Z AUTO 35006KT 310V030 9999 OVC018 13/10 Q1022

METARs EXPIRÉS :
  • 250000Z AUTO 35006KT 320V030 9999 OVC020 13/10 Q1022
  • 242330Z AUTO 34007KT 9999 OVC020 13/09 Q1022
  • 242300Z AUTO 35007KT 300V030 9999 OVC019 13/09 Q1022
  • 242230Z AUTO 35006KT 320V020 9999 OVC021 12/09 Q1022
  • 242200Z AUTO 35007KT 9999 BKN021 BKN130 12/09 Q1022

TAF TAF LFRQ
Valide du 24 à 18h jusqu'au 25 à 18h UTC


241700Z 2418/2518 32012KT 9999 BKN035
TEMPO 2422/2506 BKN010
Pas de NOTAMs connus pour ce terrain.



MET'MAP, la Météo Aéronautique d'un coup d'oeil ! - Copyright ORBIFLY Décembre 2007 - Disclaimer

ORBIFLY MET'MAP TEAM :

Programmation & Développement : Alexandra Zaïnal
Conception & Développement : Baudouin d'Aumeries
Co-Programmation & Développement : Marc-Olivier Méhu
Soutien technique & logistique : Manuel Goepfert

Contact : metmap@orbifly.com




SOURCES & CREDITS :

   NOAA